Sant Pere de Ribes, Spain
Current Conditions -  °F | °C
As of 5:30 AM on Monday 22 Dec 2014 (Local Time) from LEBL Reporting Station
Clear Clear  
Wind Chill: 34°   Ceiling: Unl
Heat Index: 41°   Visibility: 6mi
Dew Point: 37°   Wind: 13mph
Humidity: 87%   Direction: 320°NW
Pressure: 30.48"   Gusts: NA
Location:  41.27°N, 1.77°E
Report Text: LEBL 220430Z 32011KT CAVOK 05/03 Q1032 NOSIG
Loading
Personal Weather Stations






























Interactive Weather Map New forecast layout! Learn more

10-Day Weather Forecast

Advertisements
Track Severe Weather on mobile